地図

経路データ

SID SEASON NUMBER BASIN SUBBASIN NAME ISO_TIME NATURE LAT LON WMO_WIND WMO_PRES WMO_AGENCY TRACK_TYPE DIST2LAND LANDFALL IFLAG USA_AGENCY USA_ATCF_ID USA_LAT USA_LON USA_RECORD USA_STATUS USA_WIND USA_PRES USA_SSHS USA_R34_NE USA_R34_SE USA_R34_SW USA_R34_NW USA_R50_NE USA_R50_SE USA_R50_SW USA_R50_NW USA_R64_NE USA_R64_SE USA_R64_SW USA_R64_NW USA_POCI USA_ROCI USA_RMW USA_EYE TOKYO_LAT TOKYO_LON TOKYO_GRADE TOKYO_WIND TOKYO_PRES TOKYO_R50_DIR TOKYO_R50_LONG TOKYO_R50_SHORT TOKYO_R30_DIR TOKYO_R30_LONG TOKYO_R30_SHORT TOKYO_LAND CMA_LAT CMA_LON CMA_CAT CMA_WIND CMA_PRES HKO_LAT HKO_LON HKO_CAT HKO_WIND HKO_PRES NEWDELHI_LAT NEWDELHI_LON NEWDELHI_GRADE NEWDELHI_WIND NEWDELHI_PRES NEWDELHI_CI NEWDELHI_DP NEWDELHI_POCI REUNION_LAT REUNION_LON REUNION_TYPE REUNION_WIND REUNION_PRES REUNION_TNUM REUNION_CI REUNION_RMW REUNION_R34_NE REUNION_R34_SE REUNION_R34_SW REUNION_R34_NW REUNION_R50_NE REUNION_R50_SE REUNION_R50_SW REUNION_R50_NW REUNION_R64_NE REUNION_R64_SE REUNION_R64_SW REUNION_R64_NW BOM_LAT BOM_LON BOM_TYPE BOM_WIND BOM_PRES BOM_TNUM BOM_CI BOM_RMW BOM_R34_NE BOM_R34_SE BOM_R34_SW BOM_R34_NW BOM_R50_NE BOM_R50_SE BOM_R50_SW BOM_R50_NW BOM_R64_NE BOM_R64_SE BOM_R64_SW BOM_R64_NW BOM_ROCI BOM_POCI BOM_EYE BOM_POS_METHOD BOM_PRES_METHOD NADI_LAT NADI_LON NADI_CAT NADI_WIND NADI_PRES WELLINGTON_LAT WELLINGTON_LON WELLINGTON_WIND WELLINGTON_PRES DS824_LAT DS824_LON DS824_STAGE DS824_WIND DS824_PRES TD9636_LAT TD9636_LON TD9636_STAGE TD9636_WIND TD9636_PRES TD9635_LAT TD9635_LON TD9635_WIND TD9635_PRES TD9635_ROCI NEUMANN_LAT NEUMANN_LON NEUMANN_CLASS NEUMANN_WIND NEUMANN_PRES MLC_LAT MLC_LON MLC_CLASS MLC_WIND MLC_PRES USA_GUST BOM_GUST BOM_GUST_PER REUNION_GUST REUNION_GUST_PER USA_SEAHGT USA_SEARAD_NE USA_SEARAD_SE USA_SEARAD_SW USA_SEARAD_NW STORM_SPEED STORM_DIR
1967340S15152 1968 140 SP EA NOT_NAMED 1967-12-05 23:00:00 NR -15.1000 152.000 main 522 518 __________O___ -1 -15.1000 152.000 1 5 255
1967340S15152 1968 140 SP EA NOT_NAMED 1967-12-06 00:00:00 TS -15.1225 151.913 main 518 518 O________OP___ jtwc_sh SH021968 -15.1000 151.900 -1 -15.1000 151.900 TC -15.1450 151.925 1 6 241
1967340S15152 1968 140 SP EA NOT_NAMED 1967-12-06 03:00:00 TS -15.2953 151.634 main 531 531 P________PP___ SH021968 -15.3026 151.593 -1 -15.3026 151.593 TC -15.2855 151.690 1 6 235
1967340S15152 1968 140 SP EA NOT_NAMED 1967-12-06 05:00:00 TS -15.4244 151.457 1005 bom main 539 537 P_____O__PP___ SH021968 -15.4351 151.395 -1 -15.5000 151.600 1005 -15.4351 151.395 TC -15.3894 151.514 1 7 233
1967340S15152 1968 140 SP EA NOT_NAMED 1967-12-06 06:00:00 TS -15.5025 151.351 main 548 546 O_____P__OP___ jtwc_sh SH021968 -15.5000 151.300 -1 -15.5766 151.398 1005 -15.5000 151.300 TC -15.4462 151.417 1 8 238
1967340S15152 1968 140 SP EA NOT_NAMED 1967-12-06 08:00:00 TS -15.6355 151.101 1005 bom main 553 553 P_____O__PP___ SH021968 -15.6278 151.116 -1 -15.7000 151.000 1005 -15.6278 151.116 TC -15.5720 151.200 1 9 243
1967340S15152 1968 140 SP EA NOT_NAMED 1967-12-06 09:00:00 TS -15.6993 150.953 main 555 521 P_____P__PP___ SH021968 -15.6924 151.022 -1 -15.7357 150.805 1005 -15.6924 151.022 TC -15.6422 151.077 1 10 247
1967340S15152 1968 140 SP EA NOT_NAMED 1967-12-06 11:00:00 TS -15.8203 150.646 1005 bom main 511 497 P_____O__PO___ SH021968 -15.8275 150.817 -1 -15.8000 150.400 1005 -15.8275 150.817 TC -15.8000 150.800 1 10 247
1967340S15152 1968 140 SP EA NOT_NAMED 1967-12-06 12:00:00 TS -15.8894 150.480 main 497 464 O_____P__OP___ jtwc_sh SH021968 -15.9000 150.700 -1 -15.8588 150.158 1005 -15.9000 150.700 TC -15.8883 150.644 1 11 246
1967340S15152 1968 140 SP EA NOT_NAMED 1967-12-06 14:00:00 TS -16.0402 150.126 1005 bom main 454 440 P_____O__PP___ SH021968 -16.0535 150.402 -1 -16.0000 149.700 1005 -16.0535 150.402 TC -16.0793 150.310 1 11 245
1967340S15152 1968 140 SP EA NOT_NAMED 1967-12-06 15:00:00 TS -16.1176 149.960 main 440 402 P_____P__PP___ SH021968 -16.1352 150.243 -1 -16.0612 149.527 1005 -16.1352 150.243 TC -16.1791 150.141 1 10 241
1967340S15152 1968 140 SP EA NOT_NAMED 1967-12-06 17:00:00 TS -16.2833 149.674 1005 bom main 402 388 P_____O__PP___ SH021968 -16.3084 149.935 -1 -16.2000 149.300 1005 -16.3084 149.935 TC -16.3805 149.819 1 9 236
1967340S15152 1968 140 SP EA NOT_NAMED 1967-12-06 18:00:00 TS -16.3732 149.562 main 388 362 O_____P__OP___ jtwc_sh SH021968 -16.4000 149.800 -1 -16.2866 149.232 1005 -16.4000 149.800 TC -16.4793 149.676 1 8 222
1967340S15152 1968 140 SP EA NOT_NAMED 1967-12-06 20:00:00 TS -16.5896 149.387 1005 bom main 362 349 P_____O__PP___ SH021968 -16.6191 149.526 -1 -16.5000 149.200 1005 -16.6191 149.526 TC -16.6663 149.444 1 8 214
1967340S15152 1968 140 SP EA NOT_NAMED 1967-12-06 21:00:00 TS -16.7062 149.331 main 349 344 P_____P__PP___ SH021968 -16.7298 149.415 -1 -16.6526 149.196 1005 -16.7298 149.415 TC -16.7518 149.365 1 6 192
1967340S15152 1968 140 SP EA NOT_NAMED 1967-12-06 23:00:00 TS -16.9018 149.317 1005 bom main 344 344 P_____O__PO___ SH021968 -16.9258 149.293 -1 -16.9000 149.300 1005 -16.9258 149.293 TC -16.9000 149.300 1 5 173
1967340S15152 1968 140 SP EA NOT_NAMED 1967-12-07 00:00:00 TS -16.9515 149.378 main 341 341 O_____P__OP___ jtwc_sh SH021968 -17.0000 149.300 -1 -16.9225 149.435 1005 -17.0000 149.300 TC -16.9348 149.357 1 6 97
1967340S15152 1968 140 SP EA NOT_NAMED 1967-12-07 02:00:00 TS -16.9377 149.621 1005 bom main 363 363 P_____O__PP___ SH021968 -17.0675 149.478 -1 -16.8000 149.800 1005 -17.0675 149.478 TC -16.9766 149.571 1 8 82
1967340S15152 1968 140 SP EA NOT_NAMED 1967-12-07 03:00:00 TS -16.8980 149.780 main 377 377 P_____P__PP___ SH021968 -17.0801 149.630 -1 -16.6687 149.978 1004 -17.0801 149.630 TC -16.9885 149.719 1 10 75
1967340S15152 1968 140 SP EA NOT_NAMED 1967-12-07 05:00:00 TS -16.8110 150.128 1003 bom main 405 405 P_____O__PP___ SH021968 -17.0908 150.002 -1 -16.4000 150.300 1003 -17.0908 150.002 TC -17.0068 150.070 1 10 78
1967340S15152 1968 140 SP EA NOT_NAMED 1967-12-07 06:00:00 TS -16.7962 150.298 main 415 415 O_____P__OP___ jtwc_sh SH021968 -17.1000 150.200 -1 -16.3629 150.427 1003 -17.1000 150.200 TC -17.0182 150.263 1 9 92
1967340S15152 1968 140 SP EA NOT_NAMED 1967-12-07 08:00:00 TS -16.8285 150.596 1003 bom main 432 432 P_____O__PP___ SH021968 -17.1427 150.594 -1 -16.4000 150.600 1003 -17.1427 150.594 TC -17.0583 150.659 1 8 98
1967340S15152 1968 140 SP EA NOT_NAMED 1967-12-07 09:00:00 TS -16.8547 150.733 main 429 429 P_____P__PP___ SH021968 -17.1703 150.795 -1 -16.4037 150.649 1003 -17.1703 150.795 TC -17.0921 150.852 1 8 110
1967340S15152 1968 140 SP EA NOT_NAMED 1967-12-07 11:00:00 TS -16.9566 150.973 1003 bom main 435 435 P_____O__PO___ SH021968 -17.2471 151.157 -1 -16.5000 150.700 1003 -17.2471 151.157 TC -17.2000 151.200 1 7 120
1967340S15152 1968 140 SP EA NOT_NAMED 1967-12-07 12:00:00 TS -17.0405 151.063 main 441 429 O_____P__OP___ jtwc_sh SH021968 -17.3000 151.300 -1 -16.6350 150.723 1003 -17.3000 151.300 TC -17.2672 151.291 1 7 143
1967340S15152 1968 140 SP EA NOT_NAMED 1967-12-07 14:00:00 TS -17.2344 151.194 1003 bom main 429 420 P_____O__PP___ SH021968 -17.3937 151.442 -1 -17.0000 150.800 1003 -17.3937 151.442 TC -17.4339 151.439 1 7 148
1967340S15152 1968 140 SP EA NOT_NAMED 1967-12-07 15:00:00 TS -17.3440 151.255 main 426 407 P_____P__PP___ SH021968 -17.4596 151.481 -1 -17.1558 150.873 1003 -17.4596 151.481 TC -17.5352 151.501 1 9 153
1967340S15152 1968 140 SP EA NOT_NAMED 1967-12-07 17:00:00 TS -17.6158 151.396 1003 bom main 407 398 P_____O__PP___ SH021968 -17.6572 151.549 -1 -17.5000 151.100 1003 -17.6572 151.549 TC -17.7784 151.618 1 10 154
1967340S15152 1968 140 SP EA NOT_NAMED 1967-12-07 18:00:00 TS -17.7879 151.485 main 398 390 O_____P__OP___ jtwc_sh SH021968 -17.8000 151.600 -1 -17.7175 151.245 1003 -17.8000 151.600 TC -17.9222 151.677 1 13 151
1967340S15152 1968 140 SP EA NOT_NAMED 1967-12-07 20:00:00 TS -18.1858 151.719 1003 bom main 384 379 P_____O__PP___ SH021968 -18.1629 151.780 -1 -18.2000 151.600 1003 -18.1629 151.780 TC -18.2588 151.812 1 14 150
1967340S15152 1968 140 SP EA NOT_NAMED 1967-12-07 21:00:00 TS -18.4092 151.855 main 388 379 P_____P__PP___ SH021968 -18.3874 151.891 -1 -18.4279 151.792 1003 -18.3874 151.891 TC -18.4534 151.894 1 17 150
1967340S15152 1968 140 SP EA NOT_NAMED 1967-12-07 23:00:00 TS -18.9074 152.160 1003 bom main 389 383 P_____O__PO___ SH021968 -18.9087 152.150 -1 -18.9000 152.200 1003 -18.9087 152.150 TC -18.9000 152.100 1 18 150
1967340S15152 1968 140 SP EA NOT_NAMED 1967-12-08 00:00:00 TS -19.1819 152.329 main 384 360 O_____P__OP___ jtwc_sh SH021968 -19.2000 152.300 -1 -19.1533 152.400 1003 -19.2000 152.300 TC -19.1564 152.244 1 20 150
1967340S15152 1968 140 SP EA NOT_NAMED 1967-12-08 02:00:00 TS -19.7653 152.682 1003 bom main 357 345 P_____O__PP___ SH021968 -19.8247 152.624 -1 -19.7000 152.800 1003 -19.8247 152.624 TC -19.7337 152.574 1 21 150
1967340S15152 1968 140 SP EA NOT_NAMED 1967-12-08 03:00:00 TS -20.0774 152.872 main 343 319 P_____P__PP___ SH021968 -20.1625 152.805 -1 -19.9812 153.006 1003 -20.1625 152.805 TC -20.0486 152.758 1 22 150
1967340S15152 1968 140 SP EA NOT_NAMED 1967-12-08 05:00:00 TS -20.7374 153.268 1003 bom main 327 314 P_____O__PP___ SH021968 -20.8566 153.195 -1 -20.6000 153.400 1003 -20.8566 153.195 TC -20.7159 153.156 1 23 151
1967340S15152 1968 140 SP EA NOT_NAMED 1967-12-08 06:00:00 TS -21.0815 153.465 main 319 313 O_____P__OP___ jtwc_sh SH021968 -21.2000 153.400 -1 -20.9453 153.559 1003 -21.2000 153.400 TC -21.0621 153.367 1 24 152
1967340S15152 1968 140 SP EA NOT_NAMED 1967-12-08 08:00:00 TS -21.7864 153.868 1003 bom main 328 312 P_____O__PP___ SH021968 -21.8465 153.813 -1 -21.7000 153.900 1003 -21.8465 153.813 TC -21.7649 153.810 1 24 151
1967340S15152 1968 140 SP EA NOT_NAMED 1967-12-08 09:00:00 TS -22.1422 154.091 main 312 254 P_____P__PP___ SH021968 -22.1648 154.028 -1 -22.0813 154.148 1002 -22.1648 154.028 TC -22.1155 154.038 1 25 149
1967340S15152 1968 140 SP EA NOT_NAMED 1967-12-08 11:00:00 TS -22.8580 154.561 1002 bom main 250 234 P_____O__PO___ SH021968 -22.7915 154.473 -1 -22.9000 154.700 1002 -22.7915 154.473 TC -22.8000 154.500 1 25 149
1967340S15152 1968 140 SP EA NOT_NAMED 1967-12-08 12:00:00 TS -23.2191 154.789 main 234 213 O_____P__OP___ jtwc_sh SH021968 -23.1000 154.700 -1 -23.3723 154.925 1001 -23.1000 154.700 TC -23.1233 154.721 1 25 149
1967340S15152 1968 140 SP EA NOT_NAMED 1967-12-08 14:00:00 TS -23.9298 155.274 1000 bom main 226 221 P_____O__PP___ SH021968 -23.7131 155.159 -1 -24.3000 155.400 1000 -23.7131 155.159 TC -23.7640 155.175 1 25 147
1967340S15152 1968 140 SP EA NOT_NAMED 1967-12-08 15:00:00 TS -24.2639 155.542 main 226 226 P_____P__PP___ SH021968 -24.0148 155.393 -1 -24.6978 155.736 999 -24.0148 155.393 TC -24.0790 155.406 1 24 142
1967340S15152 1968 140 SP EA NOT_NAMED 1967-12-08 17:00:00 TS -24.8697 156.071 998 bom main 272 272 P_____O__PP___ SH021968 -24.6082 155.865 -1 -25.3000 156.400 998 -24.6082 155.865 TC -24.6917 155.876 1 22 141
1967340S15152 1968 140 SP EA NOT_NAMED 1967-12-08 18:00:00 TS -25.1324 156.304 main 292 292 O_____P__OP___ jtwc_sh SH021968 -24.9000 156.100 -1 -25.4750 156.607 998 -24.9000 156.100 TC -24.9869 156.114 1 19 142
1967340S15152 1968 140 SP EA NOT_NAMED 1967-12-08 20:00:00 TS -25.6096 156.719 998 bom main 338 338 P_____O__PP___ SH021968 -25.5068 156.567 -1 -25.7000 156.900 998 -25.5068 156.567 TC -25.5485 156.590 1 18 142
1967340S15152 1968 140 SP EA NOT_NAMED 1967-12-08 21:00:00 TS -25.8425 156.924 main 362 362 P_____P__PP___ SH021968 -25.8021 156.800 -1 -25.8642 157.072 997 -25.8021 156.800 TC -25.8124 156.828 1 17 141
1967340S15152 1968 140 SP EA NOT_NAMED 1967-12-08 23:00:00 TS -26.2770 157.322 996 bom main 416 416 P_____O__PO___ SH021968 -26.3533 157.267 -1 -26.2000 157.400 996 -26.3533 157.267 TC -26.3000 157.300 2 17 140
1967340S15152 1968 140 SP EA NOT_NAMED 1967-12-09 00:00:00 TS -26.4747 157.513 main 429 429 O_____P__OP___ jtwc_sh SH021968 -26.6000 157.500 -1 -26.3412 157.541 996 -26.6000 157.500 TC -26.5322 157.526 2 15 138
1967340S15152 1968 140 SP EA NOT_NAMED 1967-12-09 02:00:00 TS -26.8470 157.894 996 bom main 451 447 P_____O__PP___ SH021968 -27.0355 157.973 -1 -26.6000 157.800 996 -27.0355 157.973 TC -26.9587 157.973 2 15 137
1967340S15152 1968 140 SP EA NOT_NAMED 1967-12-09 03:00:00 TS -27.0176 158.085 main 462 459 P_____P__PP___ SH021968 -27.2247 158.208 -1 -26.7279 157.933 996 -27.2247 158.208 TC -27.1535 158.195 2 14 134
1967340S15152 1968 140 SP EA NOT_NAMED 1967-12-09 05:00:00 TS -27.3346 158.466 996 bom main 492 489 P_____O__PP___ SH021968 -27.5551 158.673 -1 -27.0000 158.200 996 -27.5551 158.673 TC -27.5073 158.638 2 14 133
1967340S15152 1968 140 SP EA NOT_NAMED 1967-12-09 06:00:00 TS -27.4873 158.657 main 506 506 O_____P__OP___ jtwc_sh SH021968 -27.7000 158.900 -1 -27.1695 158.323 996 -27.7000 158.900 TC -27.6669 158.860 2 14 131
1967340S15152 1968 140 SP EA NOT_NAMED 1967-12-09 08:00:00 TS -27.7797 159.041 996 bom main 531 531 P_____O__PP___ SH021968 -27.9806 159.326 -1 -27.5000 158.600 996 -27.9806 159.326 TC -27.9524 159.309 2 13 128
1967340S15152 1968 140 SP EA NOT_NAMED 1967-12-09 09:00:00 TS -27.9008 159.244 main 549 549 P_____P__PP___ SH021968 -28.1017 159.536 -1 -27.5994 158.774 996 -28.1017 159.536 TC -28.0788 159.536 2 13 121
1967340S15152 1968 140 SP EA NOT_NAMED 1967-12-09 11:00:00 TS -28.1203 159.681 996 bom main 597 597 P_____O__PO___ SH021968 -28.3105 159.969 -1 -27.8000 159.200 996 -28.3105 159.969 TC -28.3000 160.000 2 14 120
1967340S15152 1968 140 SP EA NOT_NAMED 1967-12-09 12:00:00 TS -28.2425 159.921 main 616 616 O_____P__OP___ jtwc_sh SH021968 -28.4000 160.200 -1 -27.9980 159.450 996 -28.4000 160.200 TC -28.4145 160.255 2 15 118
1967340S15152 1968 140 SP MM NOT_NAMED 1967-12-09 14:00:00 TS -28.4733 160.438 996 bom main 663 663 P_____O__PP___ SH021968 -28.5680 160.721 -1 -28.4000 160.000 996 -28.5680 160.721 TC -28.6099 160.778 2 15 115
1967340S15152 1968 140 SP MM NOT_NAMED 1967-12-09 15:00:00 TS -28.5584 160.702 main 691 691 P_____P__PP___ SH021968 -28.6376 160.993 -1 -28.5035 160.256 997 -28.6376 160.993 TC -28.6915 161.043 2 15 107
1967340S15152 1968 140 SP MM NOT_NAMED 1967-12-09 17:00:00 TS -28.6879 161.246 1000 bom main 739 739 P_____O__PP___ SH021968 -28.7527 161.537 -1 -28.6000 160.800 1000 -28.7527 161.537 TC -28.8240 161.569 2 15 104
1967340S15152 1968 140 SP MM NOT_NAMED 1967-12-09 18:00:00 TS -28.7411 161.527 main 769 769 O_____P__OP___ jtwc_sh SH021968 -28.8000 161.800 -1 -28.6302 161.107 1000 -28.8000 161.800 TC -28.8755 161.827 2 16 102
1967340S15152 1968 140 SP MM NOT_NAMED 1967-12-09 20:00:00 TS -28.8491 162.112 1000 bom main 826 826 P_____O__PP___ SH021968 -28.8985 162.304 -1 -28.7000 161.800 1000 -28.8985 162.304 TC -28.9508 162.325 2 16 102
1967340S15152 1968 140 SP MM NOT_NAMED 1967-12-09 21:00:00 TS -28.9046 162.412 main 839 825 P_____P__PP___ SH021968 -28.9373 162.545 -1 -28.7843 162.195 1000 -28.9373 162.545 TC -28.9753 162.561 2 16 101
1967340S15152 1968 140 SP MM NOT_NAMED 1967-12-09 23:00:00 TS -29.0042 162.990 1000 bom main 822 814 P_____O__PO___ SH021968 -28.9890 162.995 -1 -29.0000 163.000 1000 -28.9890 162.995 TC -29.0000 163.000 2 15 101
1967340S15152 1968 140 SP MM NOT_NAMED 1967-12-10 00:00:00 TS -29.0423 163.254 main 810 806 O_____P__OP___ jtwc_sh SH021968 -29.0000 163.200 -1 -29.1108 163.371 1000 -29.0000 163.200 TC -29.0010 163.200 2 13 98
1967340S15152 1968 140 SP MM NOT_NAMED 1967-12-10 02:00:00 TS -29.0970 163.724 1002 bom main 806 799 P_____O__PP___ SH021968 -28.9915 163.568 -1 -29.3000 164.000 1002 -28.9915 163.568 TC -28.9832 163.562 2 12 98
1967340S15152 1968 140 SP MM NOT_NAMED 1967-12-10 03:00:00 TS -29.1254 163.948 main 799 785 P_____P__PP___ SH021968 -28.9752 163.735 -1 -29.3815 164.248 1002 -28.9752 163.735 TC -28.9656 163.726 2 10 93
1967340S15152 1968 140 SP MM NOT_NAMED 1967-12-10 05:00:00 TS -29.1237 164.315 1004 bom main 785 780 P_____O__PP___ SH021968 -28.9276 164.049 -1 -29.4000 164.600 1004 -28.9276 164.049 TC -28.9165 164.028 2 10 86
1967340S15152 1968 140 SP MM NOT_NAMED 1967-12-10 06:00:00 TS -29.0905 164.494 main 780 753 O_____P__OP___ jtwc_sh SH021968 -28.9000 164.200 -1 -29.2807 164.762 1004 -28.9000 164.200 TC -28.8861 164.168 2 8 58
1967340S15152 1968 140 SP MM NOT_NAMED 1967-12-10 08:00:00 TS -28.9018 164.722 1004 bom main 753 742 ______O___P___ SH021968 -1 -28.9000 164.900 1004 TC -28.8167 164.430 2 8 32
1967340S15152 1968 140 SP MM NOT_NAMED 1967-12-10 09:00:00 TS -28.7685 164.726 main 742 713 ______P___P___ SH021968 -1 -28.7225 164.822 1004 TC -28.7789 164.556 2 9 340
1967340S15152 1968 140 SP MM NOT_NAMED 1967-12-10 11:00:00 TS -28.4620 164.544 1006 bom main 716 698 ______O___O___ SH021968 -1 -28.4000 164.500 1006 TC -28.7000 164.800 7 11 328
1967340S15152 1968 140 SP MM NOT_NAMED 1967-12-10 12:00:00 TS -28.2948 164.383 main 698 684 ______P_______ -1 -28.2896 164.367 1006 7 11 317
1967340S15152 1968 140 SP MM NOT_NAMED 1967-12-10 14:00:00 TS -28.0613 164.120 1007 bom main 687 677 ______O_______ -1 -28.1000 164.100 1007 7 10 315
1967340S15152 1968 140 SP MM NOT_NAMED 1967-12-10 15:00:00 TS -27.9418 163.984 main 670 657 ______P_______ -1 -27.9691 163.967 1007 7 10 315
1967340S15152 1968 140 SP MM NOT_NAMED 1967-12-10 17:00:00 TS -27.6990 163.715 1007 bom main 661 655 ______O_______ -1 -27.7000 163.700 1007 7 10 314
1967340S15152 1968 140 SP MM NOT_NAMED 1967-12-10 18:00:00 TS -27.5918 163.578 main 655 645 ______P_______ -1 -27.5877 163.567 1007 7 9 309
1967340S15152 1968 140 SP MM NOT_NAMED 1967-12-10 20:00:00 NR -27.4000 163.300 1007 bom main 649 ______O_______ -1 -27.4000 163.300 1007 7 9 308

デジタル台風データ・検索

IBTrACS Databaseについて

本データベースは、米国NOAAが公開する1842年以降の世界の熱帯低気圧のベストトラックデータアーカイブInternational Best Track Archive for Climate Stewardship (IBTrACS)を、ウェブで閲覧しやすい形式に変換したものです。

最終更新日:2021-10-19